Time;durP1;ratioP1;P1;durP2;ratioP2;P2;SDS_P1;SDS_P2;PMS_P1;PMS_P2;Temp;Humidity;BMP_temperature;BMP_pressure;BME280_temperature;BME280_humidity;BME280_pressure;Samples;Min_cycle;Max_cycle;Signal;HPM_P1;HPM_P2
2021/06/27 00:01:11;;;;;;;26.90;24.20;;;19.40;95.30;;;;;;4772397;29;20047;-80
2021/06/27 00:03:58;;;;;;;23.75;21.25;;;19.40;95.30;;;;;;4781255;29;20047;-83
2021/06/27 00:06:25;;;;;;;26.50;23.80;;;19.40;95.40;;;;;;4773494;29;20058;-81
2021/06/27 00:08:54;;;;;;;28.35;25.55;;;19.30;95.50;;;;;;4774355;29;20111;-81
2021/06/27 00:11:24;;;;;;;24.45;21.85;;;19.30;95.70;;;;;;4755565;29;20043;-81
2021/06/27 00:13:51;;;;;;;22.92;20.45;;;19.30;95.70;;;;;;4769870;29;20503;-81
2021/06/27 00:16:19;;;;;;;24.75;22.13;;;19.30;95.70;;;;;;4761072;29;20463;-81
2021/06/27 00:18:46;;;;;;;27.30;24.40;;;19.30;95.80;;;;;;4791195;29;20043;-81
2021/06/27 00:21:14;;;;;;;28.20;24.92;;;19.30;95.90;;;;;;4767449;29;20043;-80
2021/06/27 00:23:46;;;;;;;28.83;25.77;;;19.30;96.00;;;;;;4787514;29;20051;-80
2021/06/27 00:26:15;;;;;;;28.75;25.80;;;19.20;96.30;;;;;;4786059;29;20050;-80
2021/06/27 00:28:42;;;;;;;25.33;22.65;;;19.20;96.30;;;;;;4785807;29;20055;-80
2021/06/27 00:31:10;;;;;;;25.77;23.02;;;19.30;96.40;;;;;;4783184;29;20046;-80
2021/06/27 00:33:37;;;;;;;30.25;26.73;;;19.20;96.40;;;;;;4788282;29;20054;-79
2021/06/27 00:36:05;;;;;;;34.35;29.17;;;19.30;96.70;;;;;;4775087;29;20041;-80
2021/06/27 00:38:32;;;;;;;28.30;25.33;;;19.30;97.00;;;;;;4778464;29;20075;-80
2021/06/27 00:40:59;;;;;;;26.70;23.83;;;19.30;96.70;;;;;;4776442;29;20491;-80
2021/06/27 00:43:26;;;;;;;27.65;24.73;;;19.30;96.60;;;;;;4772018;29;20062;-81
2021/06/27 00:45:53;;;;;;;28.95;25.95;;;19.30;96.60;;;;;;4791488;29;20444;-81
2021/06/27 00:48:19;;;;;;;28.70;25.30;;;19.20;96.70;;;;;;4775058;29;20058;-81
2021/06/27 00:50:49;;;;;;;27.67;24.85;;;19.20;96.70;;;;;;4790417;29;20058;-81
2021/06/27 00:53:16;;;;;;;28.88;25.85;;;19.20;96.90;;;;;;4791332;29;20042;-81
2021/06/27 00:55:47;;;;;;;26.20;23.45;;;19.20;97.00;;;;;;4772689;29;20050;-80
2021/06/27 00:58:13;;;;;;;29.17;23.88;;;19.20;96.90;;;;;;4788601;29;20070;-81
2021/06/27 01:00:41;;;;;;;32.63;29.05;;;19.20;97.00;;;;;;4762176;29;20478;-81
2021/06/27 01:03:08;;;;;;;28.45;25.45;;;19.20;97.30;;;;;;4790465;29;20924;-80
2021/06/27 01:05:37;;;;;;;32.50;25.58;;;19.20;97.30;;;;;;4770227;29;20043;-80
2021/06/27 01:08:05;;;;;;;31.38;28.00;;;19.20;97.30;;;;;;4786978;29;20058;-80
2021/06/27 01:10:32;;;;;;;27.85;24.85;;;19.20;97.40;;;;;;4773086;29;20050;-81
2021/06/27 01:13:00;;;;;;;33.90;30.25;;;19.30;97.30;;;;;;4779202;29;20609;-80
2021/06/27 01:15:26;;;;;;;24.58;20.48;;;19.30;97.40;;;;;;4775234;29;20058;-80
2021/06/27 01:17:55;;;;;;;32.85;29.27;;;19.30;97.30;;;;;;4786801;29;20051;-81
2021/06/27 01:20:24;;;;;;;30.83;27.60;;;19.30;97.40;;;;;;4773230;29;20047;-80
2021/06/27 01:22:51;;;;;;;39.33;34.22;;;19.30;97.50;;;;;;4788775;29;20415;-80
2021/06/27 01:25:21;;;;;;;33.70;30.13;;;19.30;97.80;;;;;;4784371;29;20067;-80
2021/06/27 01:27:48;;;;;;;31.10;26.60;;;19.20;97.80;;;;;;4791088;29;20051;-80
2021/06/27 01:30:17;;;;;;;30.02;26.98;;;19.20;97.90;;;;;;4782666;29;20066;-80
2021/06/27 01:32:46;;;;;;;36.15;31.23;;;19.10;98.10;;;;;;4762437;29;20051;-80
2021/06/27 01:35:15;;;;;;;34.95;31.25;;;19.00;98.40;;;;;;4780993;29;20043;-80
2021/06/27 01:37:43;;;;;;;35.83;31.90;;;19.00;98.60;;;;;;4784641;29;20039;-81
2021/06/27 01:40:12;;;;;;;40.63;35.38;;;18.90;98.80;;;;;;4770430;29;20035;-79
2021/06/27 01:42:38;;;;;;;38.35;33.65;;;18.90;99.10;;;;;;4796025;29;20046;-79
2021/06/27 01:45:26;;;;;;;34.00;30.38;;;18.90;99.10;;;;;;4741723;30;20068;-79
2021/06/27 01:47:54;;;;;;;44.35;35.30;;;18.80;99.10;;;;;;4782110;29;20049;-79
2021/06/27 01:50:22;;;;;;;40.70;33.65;;;18.80;99.30;;;;;;4783527;29;20054;-79
2021/06/27 01:52:49;;;;;;;37.90;32.30;;;18.80;99.50;;;;;;4768413;29;20502;-79
2021/06/27 01:55:15;;;;;;;44.03;33.90;;;18.70;99.50;;;;;;4788110;29;20062;-80
2021/06/27 01:57:42;;;;;;;38.03;32.28;;;18.70;99.70;;;;;;4772556;29;20039;-81
2021/06/27 02:00:10;;;;;;;39.22;33.65;;;18.70;99.80;;;;;;4765856;29;20051;-80
2021/06/27 02:02:37;;;;;;;36.95;32.45;;;18.60;99.90;;;;;;4773922;29;20055;-80
2021/06/27 02:05:06;;;;;;;36.22;30.75;;;18.60;99.90;;;;;;4791826;29;20047;-80
2021/06/27 02:07:35;;;;;;;39.78;33.95;;;18.60;99.90;;;;;;4791308;29;20046;-80
2021/06/27 02:10:08;;;;;;;38.88;34.20;;;18.50;99.90;;;;;;4792298;29;20070;-80
2021/06/27 02:12:34;;;;;;;41.22;35.40;;;18.50;99.90;;;;;;4789796;29;20518;-80
2021/06/27 02:15:01;;;;;;;43.72;35.35;;;18.50;99.90;;;;;;4762107;29;20062;-80
2021/06/27 02:17:30;;;;;;;37.58;33.15;;;18.40;99.90;;;;;;4789703;29;20380;-80
2021/06/27 02:19:57;;;;;;;44.00;36.40;;;18.40;99.90;;;;;;4774227;29;20058;-80
2021/06/27 02:22:24;;;;;;;38.00;32.70;;;18.40;99.90;;;;;;4771246;29;20051;-80
2021/06/27 02:24:51;;;;;;;41.50;34.72;;;18.30;99.90;;;;;;4775513;29;20508;-81
2021/06/27 02:27:18;;;;;;;46.65;39.03;;;18.30;99.90;;;;;;4773660;29;20059;-80
2021/06/27 02:29:45;;;;;;;40.20;34.55;;;18.30;99.90;;;;;;4787448;29;20041;-80
2021/06/27 02:32:12;;;;;;;39.72;33.42;;;18.30;99.90;;;;;;4789002;29;20043;-80
2021/06/27 02:34:38;;;;;;;38.22;32.70;;;18.30;99.90;;;;;;4786094;29;20757;-80
2021/06/27 02:37:05;;;;;;;38.58;33.72;;;18.30;99.90;;;;;;4740803;29;20048;-80
2021/06/27 02:39:31;;;;;;;40.92;34.83;;;18.30;99.90;;;;;;4783254;29;20051;-80
2021/06/27 02:41:58;;;;;;;39.15;33.75;;;18.30;99.90;;;;;;4784175;29;20530;-80
2021/06/27 02:44:25;;;;;;;45.05;34.22;;;18.30;99.90;;;;;;4769223;29;20054;-80
2021/06/27 02:46:51;;;;;;;40.42;32.78;;;18.30;99.90;;;;;;4771625;29;20375;-79
2021/06/27 02:49:22;;;;;;;43.90;36.95;;;18.20;99.90;;;;;;4771116;29;20062;-78
2021/06/27 02:51:49;;;;;;;37.10;31.25;;;18.20;99.90;;;;;;4778204;29;20054;-79
2021/06/27 02:54:16;;;;;;;40.30;33.33;;;18.20;99.90;;;;;;4782296;29;20030;-80
2021/06/27 02:56:54;;;;;;;42.58;34.50;;;18.20;99.90;;;;;;5047261;28;20846;-79
2021/06/27 02:59:21;;;;;;;45.92;38.33;;;18.10;99.90;;;;;;5048580;28;21188;-78
2021/06/27 03:01:47;;;;;;;36.58;31.40;;;18.10;99.90;;;;;;5050976;28;20040;-78
2021/06/27 03:04:14;;;;;;;41.95;34.63;;;18.10;99.90;;;;;;5047667;28;20042;-78
2021/06/27 03:06:40;;;;;;;47.00;37.60;;;18.10;99.90;;;;;;5045950;28;20052;-81
2021/06/27 03:09:07;;;;;;;41.83;37.13;;;18.10;99.90;;;;;;5043811;28;20064;-80
2021/06/27 03:11:33;;;;;;;41.25;35.13;;;18.10;99.90;;;;;;5049978;28;20045;-79
2021/06/27 03:14:00;;;;;;;41.90;34.78;;;18.10;99.90;;;;;;5047072;28;20064;-79
2021/06/27 03:16:27;;;;;;;42.20;34.83;;;18.00;99.90;;;;;;5043602;28;21355;-80
2021/06/27 03:18:53;;;;;;;49.28;42.13;;;18.00;99.90;;;;;;5036506;28;20041;-79
2021/06/27 03:21:19;;;;;;;46.78;40.42;;;18.00;99.90;;;;;;5038258;28;20484;-80
2021/06/27 03:23:46;;;;;;;45.78;39.20;;;18.00;99.90;;;;;;5024928;28;20041;-80
2021/06/27 03:26:13;;;;;;;41.33;34.95;;;18.00;99.90;;;;;;5039292;28;20107;-80
2021/06/27 03:28:43;;;;;;;41.55;36.25;;;18.10;99.90;;;;;;5043598;28;20484;-79
2021/06/27 03:31:09;;;;;;;43.88;37.28;;;18.10;99.90;;;;;;5023927;28;20053;-80
2021/06/27 03:33:36;;;;;;;49.85;42.67;;;18.10;99.90;;;;;;5024533;28;20609;-80
2021/06/27 03:36:03;;;;;;;51.28;41.78;;;18.10;99.90;;;;;;5026304;28;20048;-80
2021/06/27 03:41:02;;;;;;;44.45;37.05;;;18.20;99.90;;;;;;5042977;28;20037;-80
2021/06/27 03:43:28;;;;;;;50.97;41.28;;;18.20;99.90;;;;;;5043547;28;20036;-80
2021/06/27 03:45:55;;;;;;;53.75;41.88;;;18.20;99.90;;;;;;5043821;28;20041;-79
2021/06/27 03:48:21;;;;;;;44.25;38.65;;;18.10;99.90;;;;;;5039466;28;20041;-80
2021/06/27 03:50:48;;;;;;;40.72;35.28;;;18.10;99.90;;;;;;5023668;28;20601;-80
2021/06/27 03:53:14;;;;;;;47.63;39.78;;;18.10;99.90;;;;;;5023837;28;20045;-79
2021/06/27 03:55:41;;;;;;;44.67;38.60;;;18.20;99.90;;;;;;5044214;28;20045;-79
2021/06/27 03:58:07;;;;;;;35.42;30.20;;;18.20;99.90;;;;;;5042147;28;20669;-79
2021/06/27 04:00:34;;;;;;;39.58;33.95;;;18.20;99.90;;;;;;5024972;28;20041;-80
2021/06/27 04:03:00;;;;;;;40.17;33.67;;;18.20;99.90;;;;;;4996063;28;20049;-80
2021/06/27 04:05:27;;;;;;;38.28;32.15;;;18.20;99.90;;;;;;5041950;28;20029;-79
2021/06/27 04:07:53;;;;;;;42.55;33.45;;;18.20;99.90;;;;;;5033238;28;20052;-79
2021/06/27 04:10:27;;;;;;;44.17;36.65;;;18.20;99.90;;;;;;4999010;28;20384;-80
2021/06/27 04:12:54;;;;;;;37.92;31.33;;;18.30;99.90;;;;;;5014396;28;20056;-80
2021/06/27 04:15:20;;;;;;;37.45;32.83;;;18.30;99.90;;;;;;5011745;28;20052;-80
2021/06/27 04:17:47;;;;;;;38.17;34.03;;;18.30;99.90;;;;;;5014912;28;20045;-80
2021/06/27 04:20:13;;;;;;;40.28;34.50;;;18.30;99.90;;;;;;5027324;28;20044;-80
2021/06/27 04:22:40;;;;;;;42.08;36.85;;;18.40;99.90;;;;;;5032776;28;20029;-79
2021/06/27 04:25:08;;;;;;;38.08;32.85;;;18.40;99.90;;;;;;5032403;28;20044;-80
2021/06/27 04:27:35;;;;;;;32.28;28.38;;;18.40;99.90;;;;;;5031092;28;20056;-81
2021/06/27 04:30:06;;;;;;;37.78;31.25;;;18.50;99.90;;;;;;5009328;28;20044;-80
2021/06/27 04:32:34;;;;;;;36.30;30.48;;;18.50;99.90;;;;;;5034382;28;20060;-80
2021/06/27 04:35:02;;;;;;;33.88;29.42;;;18.60;99.90;;;;;;5027552;28;20037;-80
2021/06/27 04:37:29;;;;;;;35.38;30.80;;;18.70;99.90;;;;;;5035076;28;20041;-80
2021/06/27 04:39:55;;;;;;;37.03;30.35;;;18.80;99.90;;;;;;5016693;28;20034;-80
2021/06/27 04:42:22;;;;;;;35.22;30.02;;;18.80;99.90;;;;;;5014962;28;20029;-80
2021/06/27 04:44:48;;;;;;;30.88;25.48;;;18.90;99.90;;;;;;4997487;28;20037;-80
2021/06/27 04:47:15;;;;;;;33.97;30.05;;;19.00;99.90;;;;;;5013188;28;20037;-77
2021/06/27 04:49:41;;;;;;;31.38;27.33;;;19.10;99.80;;;;;;5030261;28;20037;-77
2021/06/27 04:52:09;;;;;;;32.70;28.40;;;19.20;99.70;;;;;;5035518;28;20068;-77
2021/06/27 04:54:37;;;;;;;29.10;25.92;;;19.30;99.30;;;;;;5004525;28;20052;-77
2021/06/27 04:57:04;;;;;;;29.13;24.98;;;19.50;99.10;;;;;;5024522;28;20385;-77
2021/06/27 04:59:31;;;;;;;30.55;25.42;;;19.60;98.80;;;;;;5024564;28;20037;-77
2021/06/27 05:01:57;;;;;;;31.33;27.92;;;19.80;98.50;;;;;;5023945;28;20041;-77
2021/06/27 05:04:24;;;;;;;27.42;23.80;;;19.90;97.90;;;;;;5024046;28;20384;-77
2021/06/27 05:06:50;;;;;;;26.67;23.40;;;20.00;97.80;;;;;;5024611;28;20499;-77
2021/06/27 05:09:17;;;;;;;30.92;26.83;;;20.10;97.70;;;;;;4992518;28;20056;-77
2021/06/27 05:11:44;;;;;;;28.10;25.02;;;20.10;97.10;;;;;;5029678;28;20511;-77
2021/06/27 05:14:10;;;;;;;29.38;26.27;;;20.10;97.10;;;;;;4995169;28;20504;-77
2021/06/27 05:16:37;;;;;;;27.92;24.92;;;20.00;96.80;;;;;;5026982;28;20579;-77
2021/06/27 05:19:04;;;;;;;28.48;24.75;;;20.00;96.90;;;;;;5021836;28;20461;-77
2021/06/27 05:21:31;;;;;;;24.27;21.75;;;20.00;97.00;;;;;;5009342;28;20037;-76
2021/06/27 05:23:57;;;;;;;26.67;23.58;;;19.90;97.20;;;;;;5024759;28;20056;-76
2021/06/27 05:26:24;;;;;;;24.13;20.33;;;20.00;97.00;;;;;;5008177;28;20045;-77
2021/06/27 05:28:52;;;;;;;24.05;21.13;;;20.00;96.80;;;;;;5023672;28;20512;-76
2021/06/27 05:31:18;;;;;;;26.05;21.98;;;20.10;96.60;;;;;;5026413;28;20396;-78
2021/06/27 05:33:45;;;;;;;25.92;23.23;;;20.10;96.40;;;;;;4977793;28;20048;-79
2021/06/27 05:36:12;;;;;;;19.45;17.35;;;20.20;96.10;;;;;;5027386;28;20057;-78
2021/06/27 05:38:38;;;;;;;41.90;36.83;;;20.30;96.00;;;;;;5028455;28;20033;-78
2021/06/27 05:41:05;;;;;;;25.00;22.33;;;20.40;95.90;;;;;;5043200;28;20056;-79
2021/06/27 05:43:32;;;;;;;21.08;18.20;;;20.50;95.70;;;;;;4965040;28;20032;-78
2021/06/27 05:46:01;;;;;;;20.38;18.25;;;20.60;95.60;;;;;;5014217;28;20064;-77
2021/06/27 05:48:29;;;;;;;20.25;18.15;;;20.70;95.50;;;;;;5007418;28;20034;-78
2021/06/27 05:50:55;;;;;;;18.80;16.83;;;20.70;95.40;;;;;;5014933;28;20052;-78
2021/06/27 05:53:22;;;;;;;22.13;19.80;;;20.70;95.30;;;;;;5006651;28;20399;-78
2021/06/27 05:55:48;;;;;;;25.45;21.98;;;20.70;95.10;;;;;;5028124;28;20061;-76
2021/06/27 05:58:15;;;;;;;25.85;22.75;;;20.60;95.00;;;;;;5021656;28;20045;-77
2021/06/27 06:00:41;;;;;;;27.10;23.48;;;20.70;95.00;;;;;;5009405;28;20038;-78
2021/06/27 06:03:08;;;;;;;21.88;19.48;;;20.70;95.10;;;;;;5023602;28;20042;-77
2021/06/27 06:05:34;;;;;;;26.35;23.02;;;20.80;95.00;;;;;;4993136;28;20483;-77
2021/06/27 06:08:01;;;;;;;21.10;18.88;;;20.90;95.00;;;;;;5024760;28;20053;-78
2021/06/27 06:10:27;;;;;;;21.67;19.35;;;21.10;94.90;;;;;;5009804;28;20404;-77
2021/06/27 06:12:54;;;;;;;19.67;17.60;;;21.10;94.80;;;;;;5007565;28;20057;-78
2021/06/27 06:15:20;;;;;;;23.85;21.33;;;21.20;94.60;;;;;;5026235;28;20034;-77
2021/06/27 06:17:47;;;;;;;26.30;22.20;;;21.20;94.40;;;;;;5010182;28;20038;-78
2021/06/27 06:20:13;;;;;;;24.65;22.05;;;21.30;94.50;;;;;;5027073;28;20048;-78
2021/06/27 06:22:40;;;;;;;20.52;18.33;;;21.40;94.20;;;;;;5023769;28;20780;-78
2021/06/27 06:25:07;;;;;;;22.00;19.20;;;21.40;94.10;;;;;;5032281;28;20052;-79
2021/06/27 06:27:33;;;;;;;25.85;23.25;;;21.30;94.00;;;;;;5026880;28;20040;-78
2021/06/27 06:30:00;;;;;;;19.95;17.85;;;21.30;93.80;;;;;;5024830;28;20029;-78
2021/06/27 06:32:26;;;;;;;22.92;20.45;;;21.20;93.90;;;;;;4996035;28;20040;-78
2021/06/27 06:34:53;;;;;;;22.33;20.00;;;21.10;94.10;;;;;;5024884;28;20047;-79
2021/06/27 06:37:20;;;;;;;19.30;17.33;;;21.20;94.10;;;;;;5004782;28;20049;-78
2021/06/27 06:39:46;;;;;;;28.35;25.35;;;21.20;94.20;;;;;;5006158;28;20733;-79
2021/06/27 06:42:13;;;;;;;21.27;18.98;;;21.20;94.10;;;;;;5022545;28;20057;-79
2021/06/27 06:44:39;;;;;;;20.88;18.25;;;21.20;94.00;;;;;;5005785;28;20045;-78
2021/06/27 06:47:06;;;;;;;21.60;18.55;;;21.20;94.00;;;;;;4993202;28;20045;-79
2021/06/27 06:49:32;;;;;;;19.00;17.00;;;21.20;93.90;;;;;;5024039;28;20041;-78
2021/06/27 06:51:59;;;;;;;17.02;15.30;;;21.40;94.00;;;;;;5024674;28;20050;-79
2021/06/27 06:54:25;;;;;;;21.48;19.30;;;21.70;93.80;;;;;;5026466;28;20042;-81
2021/06/27 06:56:52;;;;;;;18.88;16.95;;;21.90;93.30;;;;;;5027278;28;20060;-78
2021/06/27 06:59:19;;;;;;;22.10;19.58;;;22.00;93.10;;;;;;5027956;28;20037;-78
2021/06/27 07:01:45;;;;;;;20.27;18.17;;;22.20;93.00;;;;;;5010255;28;20041;-79
2021/06/27 07:04:12;;;;;;;20.75;18.55;;;22.40;92.70;;;;;;5009697;28;20044;-77
2021/06/27 07:06:38;;;;;;;20.73;18.83;;;22.60;92.40;;;;;;5027381;28;20041;-79
2021/06/27 07:09:05;;;;;;;19.63;16.92;;;22.70;91.90;;;;;;5025791;28;20045;-79
2021/06/27 07:11:31;;;;;;;22.25;19.92;;;22.80;91.80;;;;;;5025286;28;20056;-79
2021/06/27 07:13:58;;;;;;;21.70;19.58;;;23.00;91.50;;;;;;5024750;28;20500;-80
2021/06/27 07:16:24;;;;;;;19.92;17.80;;;23.10;90.80;;;;;;4996954;28;20045;-81
2021/06/27 07:18:51;;;;;;;18.02;16.15;;;23.20;90.70;;;;;;4993304;28;20041;-79
2021/06/27 07:21:18;;;;;;;17.00;15.43;;;23.40;90.80;;;;;;5028421;28;20504;-79
2021/06/27 07:23:44;;;;;;;17.05;15.32;;;23.50;90.70;;;;;;5026531;28;20056;-80
2021/06/27 07:26:11;;;;;;;18.58;16.75;;;23.70;90.70;;;;;;5024726;28;20050;-80
2021/06/27 07:28:38;;;;;;;14.52;13.02;;;23.80;90.30;;;;;;5011731;28;20033;-79
2021/06/27 07:31:05;;;;;;;18.48;16.60;;;23.90;90.10;;;;;;5027969;28;20033;-79
2021/06/27 07:33:31;;;;;;;15.73;14.13;;;24.00;90.10;;;;;;5024400;28;20061;-79
2021/06/27 07:35:58;;;;;;;18.08;16.27;;;24.00;89.80;;;;;;5009483;28;20054;-79
2021/06/27 07:38:24;;;;;;;16.52;14.77;;;24.10;89.30;;;;;;5010122;28;20041;-79
2021/06/27 07:40:51;;;;;;;18.75;16.83;;;24.10;89.20;;;;;;5028717;28;20045;-81
2021/06/27 07:43:18;;;;;;;16.90;15.20;;;24.20;89.00;;;;;;5024493;28;20053;-79
2021/06/27 07:45:44;;;;;;;16.00;14.40;;;24.20;88.90;;;;;;5029319;28;20045;-79
2021/06/27 07:48:12;;;;;;;16.35;14.63;;;24.30;88.90;;;;;;5024958;28;20054;-78
2021/06/27 07:50:39;;;;;;;18.60;16.80;;;24.50;88.40;;;;;;5012153;28;20033;-78
2021/06/27 07:53:05;;;;;;;15.65;14.10;;;24.60;87.70;;;;;;5029672;28;20033;-78
2021/06/27 07:55:33;;;;;;;13.93;12.57;;;24.60;87.60;;;;;;5030475;28;20377;-79
2021/06/27 07:57:59;;;;;;;13.48;12.27;;;24.70;87.80;;;;;;5012318;28;20427;-77
2021/06/27 08:00:29;;;;;;;15.68;14.10;;;24.80;87.70;;;;;;5012393;28;20033;-77
2021/06/27 08:02:57;;;;;;;17.67;15.65;;;24.90;87.40;;;;;;5024783;28;20053;-77
2021/06/27 08:05:23;;;;;;;16.67;14.63;;;24.90;87.20;;;;;;5031119;28;20037;-77
2021/06/27 08:07:50;;;;;;;16.63;15.02;;;24.90;86.60;;;;;;5029622;28;20052;-78
2021/06/27 08:10:17;;;;;;;17.13;15.50;;;24.90;86.20;;;;;;5028383;28;20492;-79
2021/06/27 08:12:43;;;;;;;17.80;16.10;;;24.80;85.90;;;;;;5011857;28;20037;-78
2021/06/27 08:15:17;;;;;;;15.77;14.10;;;24.70;85.80;;;;;;5010031;28;20045;-80
2021/06/27 08:17:49;;;;;;;15.65;14.05;;;24.70;86.50;;;;;;5021976;28;20065;-76
2021/06/27 08:20:17;;;;;;;15.20;13.73;;;24.80;87.00;;;;;;5025245;28;20048;-79
2021/06/27 08:22:44;;;;;;;14.25;12.95;;;24.90;87.00;;;;;;5010325;28;20037;-78
2021/06/27 08:25:11;;;;;;;16.40;14.70;;;25.10;86.50;;;;;;5027778;28;20499;-78
2021/06/27 08:27:39;;;;;;;16.52;14.93;;;25.20;85.10;;;;;;5011574;28;20061;-79
2021/06/27 08:30:09;;;;;;;16.48;14.77;;;25.30;84.80;;;;;;4994164;28;20049;-79
2021/06/27 08:32:37;;;;;;;14.88;13.38;;;25.40;84.90;;;;;;5027553;28;20041;-78
2021/06/27 08:35:04;;;;;;;12.23;10.98;;;25.50;84.50;;;;;;5026213;28;20048;-78
2021/06/27 08:37:31;;;;;;;13.32;11.93;;;25.60;84.60;;;;;;5009793;28;20041;-80
2021/06/27 08:39:57;;;;;;;14.13;12.73;;;25.70;83.90;;;;;;4995619;28;20041;-79
2021/06/27 08:42:24;;;;;;;12.35;11.25;;;25.80;83.80;;;;;;5028657;28;20054;-79
2021/06/27 08:44:51;;;;;;;12.75;11.60;;;25.90;83.70;;;;;;4985541;28;20042;-83
2021/06/27 08:47:18;;;;;;;12.02;9.77;;;26.00;83.20;;;;;;5027707;28;20048;-81
2021/06/27 08:49:47;;;;;;;11.90;10.70;;;26.10;82.20;;;;;;5026891;28;20064;-81
2021/06/27 08:52:17;;;;;;;14.25;12.90;;;26.20;81.70;;;;;;4994139;28;20042;-81
2021/06/27 08:54:46;;;;;;;10.02;9.00;;;26.20;80.90;;;;;;5027882;28;20251;-82
2021/06/27 08:57:13;;;;;;;10.45;9.52;;;26.30;81.00;;;;;;5028839;28;20033;-80
2021/06/27 08:59:41;;;;;;;11.13;10.18;;;26.40;80.90;;;;;;5028949;28;20560;-79
2021/06/27 09:02:09;;;;;;;9.32;8.50;;;26.40;79.80;;;;;;5027233;28;20037;-79
2021/06/27 09:04:43;;;;;;;12.60;11.15;;;26.50;80.10;;;;;;5030055;28;20041;-79
2021/06/27 09:07:38;;;;;;;10.43;9.52;;;26.50;80.20;;;;;;5026059;28;20033;-79
2021/06/27 09:10:23;;;;;;;11.10;10.00;;;26.60;80.30;;;;;;5025518;28;20392;-80
2021/06/27 09:12:58;;;;;;;11.48;10.38;;;26.60;80.30;;;;;;5008190;28;20495;-81
2021/06/27 09:15:44;;;;;;;9.65;8.75;;;26.50;79.70;;;;;;5032944;28;20049;-80
2021/06/27 09:18:14;;;;;;;9.68;8.77;;;26.50;79.70;;;;;;4992561;28;20044;-81
2021/06/27 09:20:46;;;;;;;10.18;9.27;;;26.50;79.90;;;;;;5028833;28;20052;-81
2021/06/27 09:23:15;;;;;;;11.88;10.75;;;26.50;80.20;;;;;;5013305;28;20042;-81
2021/06/27 09:25:44;;;;;;;13.02;11.73;;;26.50;79.10;;;;;;5024144;28;20037;-81
2021/06/27 09:28:13;;;;;;;10.52;9.48;;;26.50;78.80;;;;;;5030059;28;20049;-81
2021/06/27 09:30:49;;;;;;;7.18;6.55;;;26.50;79.00;;;;;;4995604;28;20041;-81
2021/06/27 09:33:18;;;;;;;10.38;9.38;;;26.60;79.60;;;;;;5024775;28;20033;-81
2021/06/27 09:36:06;;;;;;;13.10;11.90;;;26.80;79.80;;;;;;5010657;28;20456;-81
2021/06/27 09:38:38;;;;;;;9.63;8.82;;;26.90;78.60;;;;;;5016499;28;20045;-80
2021/06/27 09:41:23;;;;;;;;;;;26.90;78.80;;;;;;5030035;28;20049;-81
2021/06/27 09:43:58;;;;;;;12.73;11.52;;;27.10;79.00;;;;;;5008739;28;19913;-80
2021/06/27 09:46:46;;;;;;;12.50;11.40;;;27.20;78.90;;;;;;5034484;28;20048;-81
2021/06/27 09:49:24;;;;;;;14.65;12.32;;;27.40;78.60;;;;;;5020804;28;20034;-80
2021/06/27 09:51:54;;;;;;;12.05;10.90;;;27.50;78.10;;;;;;5026401;28;20514;-80
2021/06/27 09:54:23;;;;;;;9.25;8.40;;;27.50;78.20;;;;;;5004798;28;20033;-80
2021/06/27 09:56:52;;;;;;;10.73;9.73;;;27.50;78.60;;;;;;5006549;28;20045;-80
2021/06/27 09:59:42;;;;;;;9.73;8.82;;;27.70;78.40;;;;;;5007003;28;20087;-80
2021/06/27 10:02:09;;;;;;;8.20;7.50;;;27.90;76.60;;;;;;5010236;28;20048;-80
2021/06/27 10:04:37;;;;;;;9.32;8.52;;;28.00;75.90;;;;;;4994671;28;20476;-79
2021/06/27 10:07:06;;;;;;;9.52;8.00;;;28.10;75.60;;;;;;5028534;28;20048;-79
2021/06/27 10:09:41;;;;;;;7.00;6.40;;;28.20;74.20;;;;;;5004575;28;20045;-83
2021/06/27 10:12:08;;;;;;;8.57;7.80;;;28.40;74.10;;;;;;5012151;28;20049;-82
2021/06/27 10:14:58;;;;;;;8.75;8.05;;;28.30;71.80;;;;;;5026306;28;20048;-82
2021/06/27 10:17:27;;;;;;;7.60;6.82;;;28.10;72.70;;;;;;5004981;28;20037;-82
2021/06/27 10:19:54;;;;;;;6.93;6.28;;;28.20;73.30;;;;;;5026414;28;20072;-82
2021/06/27 10:22:23;;;;;;;6.30;5.82;;;28.20;73.40;;;;;;4991818;28;20056;-82
2021/06/27 10:24:50;;;;;;;8.13;6.35;;;28.40;73.40;;;;;;5012016;28;20030;-85
2021/06/27 10:27:16;;;;;;;7.32;6.25;;;28.40;72.50;;;;;;4993265;28;20674;-84
2021/06/27 10:29:46;;;;;;;8.85;8.15;;;28.50;71.90;;;;;;4958626;28;20400;-85
2021/06/27 10:32:16;;;;;;;8.95;8.07;;;28.40;71.10;;;;;;5010294;28;20044;-84
2021/06/27 10:34:43;;;;;;;6.85;6.22;;;28.50;70.90;;;;;;5022454;28;20049;-83
2021/06/27 10:37:19;;;;;;;7.22;6.63;;;28.50;70.90;;;;;;5024721;28;20039;-84
2021/06/27 10:40:09;;;;;;;7.57;6.85;;;28.60;70.10;;;;;;5005572;28;20037;-80
2021/06/27 10:43:01;;;;;;;7.35;6.75;;;28.60;69.30;;;;;;5010056;28;20037;-84
2021/06/27 10:45:32;;;;;;;6.45;5.85;;;28.50;69.80;;;;;;5025301;28;20144;-80
2021/06/27 10:48:00;;;;;;;6.60;5.55;;;28.50;70.60;;;;;;5024744;28;20056;-80
2021/06/27 10:50:51;;;;;;;6.03;5.55;;;28.70;70.60;;;;;;5024242;28;20057;-81
2021/06/27 10:53:18;;;;;;;8.05;7.45;;;28.80;70.30;;;;;;5008066;28;20519;-81
2021/06/27 10:55:45;;;;;;;7.95;7.25;;;29.00;70.50;;;;;;5014052;28;20142;-81
2021/06/27 10:58:13;;;;;;;6.68;6.07;;;29.10;68.90;;;;;;4991926;28;20692;-82
2021/06/27 11:00:53;;;;;;;7.30;5.97;;;29.10;68.30;;;;;;4993351;28;20037;-82
2021/06/27 11:03:29;;;;;;;6.70;6.10;;;29.20;68.40;;;;;;5009719;28;20693;-82
2021/06/27 11:06:01;;;;;;;4.97;4.55;;;29.30;67.60;;;;;;5008286;28;20056;-83
2021/06/27 11:08:43;;;;;;;6.65;5.00;;;29.40;67.30;;;;;;4995849;28;20507;-82
2021/06/27 11:11:11;;;;;;;;;;;29.50;67.30;;;;;;5026750;28;20044;-82
2021/06/27 11:13:38;;;;;;;5.32;4.82;;;29.60;67.00;;;;;;4997048;28;20390;-82
2021/06/27 11:16:11;;;;;;;4.47;4.07;;;29.70;66.90;;;;;;4994494;28;20038;-82
2021/06/27 11:18:47;;;;;;;7.55;6.55;;;29.80;66.10;;;;;;5028560;28;20046;-82
2021/06/27 11:21:15;;;;;;;6.53;5.93;;;29.90;64.60;;;;;;5033748;28;20041;-82
2021/06/27 11:23:47;;;;;;;6.22;5.72;;;29.80;64.10;;;;;;5026318;28;20041;-81
2021/06/27 11:26:42;;;;;;;6.03;5.53;;;29.90;63.70;;;;;;5022023;28;20048;-82
2021/06/27 11:29:21;;;;;;;6.93;6.35;;;30.00;63.40;;;;;;5030456;28;20041;-81
2021/06/27 11:31:49;;;;;;;4.82;4.43;;;30.20;62.50;;;;;;5012005;28;20054;-81
2021/06/27 11:34:28;;;;;;;6.25;5.13;;;30.30;63.10;;;;;;5007719;28;20061;-80
2021/06/27 11:36:57;;;;;;;5.55;4.40;;;30.60;60.90;;;;;;5027037;28;20041;-80
2021/06/27 11:39:54;;;;;;;6.50;4.40;;;30.70;61.30;;;;;;5026207;28;20041;-84
2021/06/27 11:42:26;;;;;;;4.63;4.22;;;30.70;60.60;;;;;;4995857;28;20048;-84
2021/06/27 11:45:08;;;;;;;4.30;3.90;;;30.80;58.80;;;;;;4995091;28;20041;-83
2021/06/27 11:47:37;;;;;;;;;;;30.90;59.20;;;;;;4995908;28;20053;-84
2021/06/27 11:50:24;;;;;;;4.53;4.03;;;31.10;58.90;;;;;;5010347;28;19912;-85
2021/06/27 11:53:01;;;;;;;5.85;3.97;;;31.30;57.70;;;;;;5011308;28;20030;-82
2021/06/27 11:55:36;;;;;;;3.70;3.40;;;31.40;55.80;;;;;;4993453;28;20511;-82
2021/06/27 11:58:04;;;;;;;3.50;3.20;;;31.40;52.80;;;;;;5027160;28;20037;-83
2021/06/27 12:00:37;;;;;;;3.22;3.03;;;31.30;53.20;;;;;;4991373;28;20838;-84
2021/06/27 12:03:09;;;;;;;4.22;3.47;;;31.50;52.00;;;;;;5026672;28;20052;-80
2021/06/27 12:05:37;;;;;;;2.90;2.67;;;31.80;52.60;;;;;;5026756;28;20029;-83
2021/06/27 12:08:09;;;;;;;3.00;2.70;;;32.10;51.30;;;;;;5027777;28;20037;-83
2021/06/27 12:10:36;;;;;;;;;;;32.30;50.60;;;;;;5030720;28;20033;-78
2021/06/27 12:13:05;;;;;;;3.45;2.97;;;32.70;51.00;;;;;;5033073;28;19924;-84
2021/06/27 12:15:40;;;;;;;3.30;3.00;;;33.10;50.20;;;;;;5011742;28;20025;-83
2021/06/27 12:18:08;;;;;;;2.80;2.60;;;33.60;49.00;;;;;;5008934;28;20381;-84
2021/06/27 12:21:07;;;;;;;3.40;3.13;;;33.80;47.40;;;;;;5013245;28;20052;-81
2021/06/27 12:23:45;;;;;;;4.13;3.45;;;34.00;46.10;;;;;;5032842;28;20053;-87
2021/06/27 12:26:18;;;;;;;4.18;3.78;;;34.00;45.40;;;;;;5009073;28;20033;-85
2021/06/27 12:28:50;;;;;;;3.25;3.05;;;33.80;45.20;;;;;;5025659;28;20045;-84
2021/06/27 12:31:18;;;;;;;3.42;3.13;;;33.90;46.10;;;;;;5010469;28;20033;-81
2021/06/27 12:33:47;;;;;;;2.50;2.30;;;34.10;46.10;;;;;;5010351;28;20034;-80
2021/06/27 12:36:24;;;;;;;3.80;3.38;;;34.40;45.60;;;;;;5030575;28;20037;-79
2021/06/27 12:38:55;;;;;;;3.80;3.50;;;34.90;43.60;;;;;;5025231;28;20046;-83
2021/06/27 12:41:25;;;;;;;3.37;3.03;;;35.10;43.90;;;;;;4993686;28;20034;-86
2021/06/27 12:43:57;;;;;;;2.97;2.78;;;35.20;44.40;;;;;;5009200;28;20041;-86
2021/06/27 12:46:47;;;;;;;3.03;2.72;;;35.60;43.70;;;;;;5011837;28;20052;-86